Schnellsuche:     vonnach     am:               Ankunft heute   Abflug heute   
Wetterdaten des Sylter Flughafens. Alle Angaben sind ohne Gewähr.



Datum: 2017-11-24 20:20 UTC
   
Windrichtung: 290°
Windgeschwindigkeit: 10 - 24 Kt.
QNH: 1009 hPa
Temperatur: 5 °C
Taupunkt: 1 °C
rel. Luftfeuchte: 75 %

METAR EDXW 241520Z 27012KT 9999 FEW015 SCT029TCU BKN039 06/02 Q1007 RMK ATIS NOV=

Wolkenhöhen in den letzten 48 Stunden:






 


Im Jettempo nach Sylt!



Air Berlin

Zürich
Die Air Berlin fliegt vom 31. März bis zum 27. Oktober 2018 nach Zürich. Zur Seite der Air Berlin: www.airberlin.com

Lufthansa

Zürich, München und Frankfurt/Main
Die Lufthansa fliegt vom 21. April bis zum 20. Oktober 2018 nach Zürich, vom 23. Dezember bis zum 06. Januar 2019 nach München und vom 23. Dezember bis zum 13. Oktober 2018 nach Frankfurt/Main. Zur Seite der Lufthansa: www.lufthansa.de

Syltair

Hamburg
Die Syltair fliegt vom 29. März bis zum 04. Oktober 2018 nach Hamburg. Zur Seite der Syltair: www.syltair.de